CheckWX is a tool to help pilots better visualize weather data.  It is not intended as a substitute for an official pre-flight weather briefing.

20:59:17 UTC

EFTU TAF
Turku Airport
Turku, Finland
TAF EFTU 172037Z 1721/1821 34004KT 9999 BKN040 TEMPO 1721/1806 2000 BCFG

Sep-17@
21:00 UTC

Sep-17 @ 21:00 UTC

Sep-18@
21:00 UTC

Sep-18 @ 21:00 UTC

TAF EFTU 172037Z 1721/1821 34004KT 9999 BKN040
Wind
  • 340° at 4 KTS
Cloud Levels
  • Broken at 4,000' AGL

Sep-17@
21:00 UTC

Sep-17 @ 21:00 UTC

Sep-18@
06:00 UTC

Sep-18 @ 06:00 UTC

TEMPO 1721/1806 2000 BCFG

Temporary

Temporary Changes expected for less than half the time period

Conditions
Patches of Fog